createdAt,value
2022-11-15T00:01:32.718Z,12.10
2022-11-15T00:03:59.863Z,11.70
2022-11-15T00:06:31.935Z,11.93
2022-11-15T00:09:00.260Z,11.03
2022-11-15T00:11:27.579Z,12.00
2022-11-15T00:14:03.371Z,11.17
2022-11-15T00:16:32.657Z,11.57
2022-11-15T00:18:59.722Z,11.10
2022-11-15T00:21:29.297Z,10.87
2022-11-15T00:24:01.496Z,11.23
2022-11-15T00:26:31.155Z,11.80
2022-11-15T00:28:58.238Z,11.53
2022-11-15T00:31:25.322Z,11.60
2022-11-15T00:33:52.375Z,11.70
2022-11-15T00:36:19.410Z,11.20
2022-11-15T00:38:48.729Z,11.03
2022-11-15T00:41:18.201Z,11.70
2022-11-15T00:43:45.268Z,11.43
2022-11-15T00:46:12.452Z,11.07
2022-11-15T00:48:41.924Z,11.20
2022-11-15T00:51:11.193Z,12.03
2022-11-15T00:53:40.550Z,11.17
2022-11-15T00:56:07.882Z,12.03
2022-11-15T00:58:37.363Z,11.90
2022-11-15T01:01:15.411Z,12.13
2022-11-15T01:03:42.624Z,12.07
2022-11-15T01:06:13.030Z,11.50
2022-11-15T01:08:41.126Z,11.80
2022-11-15T01:11:11.609Z,12.50
2022-11-15T01:13:41.416Z,11.77
2022-11-15T01:16:13.597Z,11.60
2022-11-15T01:18:41.622Z,12.50
2022-11-15T01:21:17.601Z,12.07
2022-11-15T01:23:45.813Z,12.30
2022-11-15T01:26:15.449Z,11.70
2022-11-15T01:28:44.969Z,11.17
2022-11-15T01:31:18.792Z,12.20
2022-11-15T01:33:48.900Z,11.83
2022-11-15T01:36:22.690Z,12.50
2022-11-15T01:38:59.843Z,12.30
2022-11-15T01:41:31.924Z,11.87
2022-11-15T01:44:37.371Z,12.13
2022-11-15T01:47:15.364Z,12.17
2022-11-15T01:49:56.122Z,12.27
2022-11-15T01:52:26.566Z,12.90
2022-11-15T01:54:59.754Z,12.97
2022-11-15T01:57:26.926Z,12.57
2022-11-15T01:59:54.160Z,12.27
2022-11-15T02:02:21.762Z,13.07
2022-11-15T02:04:49.202Z,13.00
2022-11-15T02:07:19.446Z,13.43
2022-11-15T02:09:49.851Z,12.53
2022-11-15T02:12:22.397Z,12.77
2022-11-15T02:14:55.440Z,13.40
2022-11-15T02:17:46.324Z,13.33
2022-11-15T02:20:25.250Z,13.23
2022-11-15T02:23:17.374Z,13.10
2022-11-15T02:26:32.056Z,13.97
2022-11-15T02:29:35.912Z,13.83
2022-11-15T02:32:29.098Z,12.57
2022-11-15T02:35:21.684Z,13.27
2022-11-15T02:38:05.395Z,13.33
2022-11-15T02:41:00.006Z,12.43
2022-11-15T02:43:57.768Z,12.87
2022-11-15T02:46:58.208Z,12.83
2022-11-15T02:49:32.354Z,12.37
2022-11-15T02:52:02.118Z,12.67
2022-11-15T02:54:34.493Z,12.10
2022-11-15T02:57:13.414Z,12.73
2022-11-15T03:00:01.458Z,11.97
2022-11-15T03:02:45.737Z,12.47
2022-11-15T03:05:36.657Z,12.60
2022-11-15T03:08:27.343Z,12.60
2022-11-15T03:10:56.417Z,12.47
2022-11-15T03:13:38.716Z,12.60
2022-11-15T03:16:34.514Z,13.40
2022-11-15T03:19:25.066Z,13.33
2022-11-15T03:21:53.532Z,13.37
2022-11-15T03:24:25.793Z,12.50
2022-11-15T03:27:00.146Z,12.53
2022-11-15T03:29:39.910Z,11.90
2022-11-15T03:32:15.150Z,12.60
2022-11-15T03:34:57.479Z,12.70
2022-11-15T03:37:35.170Z,13.37
2022-11-15T03:40:05.478Z,13.23
2022-11-15T03:43:00.740Z,12.23
2022-11-15T03:45:38.235Z,13.07
2022-11-15T03:48:15.440Z,12.03
2022-11-15T03:50:47.325Z,11.53
2022-11-15T03:53:14.829Z,12.93
2022-11-15T03:55:44.826Z,13.67
2022-11-15T03:58:14.024Z,11.70
2022-11-15T04:00:44.220Z,12.20
2022-11-15T04:03:16.077Z,12.70
2022-11-15T04:05:43.211Z,12.20
2022-11-15T04:08:12.341Z,11.67
2022-11-15T04:10:40.248Z,12.20
2022-11-15T04:13:07.384Z,11.23
2022-11-15T04:15:34.905Z,11.10
2022-11-15T04:18:04.495Z,10.93
2022-11-15T04:20:50.745Z,11.07
2022-11-15T04:23:42.400Z,10.97
2022-11-15T04:26:19.183Z,10.53
2022-11-15T04:29:05.401Z,12.20
2022-11-15T04:31:32.630Z,10.73
2022-11-15T04:34:02.054Z,10.67
2022-11-15T04:36:47.604Z,10.47
2022-11-15T04:39:16.881Z,10.97
2022-11-15T04:41:43.967Z,10.17
2022-11-15T04:44:13.245Z,10.07
2022-11-15T04:46:42.591Z,9.97
2022-11-15T04:49:14.372Z,9.33
2022-11-15T04:51:43.917Z,8.83
2022-11-15T04:54:11.169Z,8.03
2022-11-15T04:56:38.277Z,8.97
2022-11-15T04:59:05.398Z,8.63
2022-11-15T05:01:32.706Z,7.70
2022-11-15T05:04:20.318Z,8.13
2022-11-15T05:06:53.657Z,7.83
2022-11-15T05:09:24.730Z,7.53
2022-11-15T05:11:51.880Z,7.60
2022-11-15T05:14:19.075Z,8.07
2022-11-15T05:16:46.160Z,7.60
2022-11-15T05:19:15.636Z,7.37
2022-11-15T05:21:47.518Z,7.53
2022-11-15T05:24:14.681Z,7.33
2022-11-15T05:26:41.834Z,7.20
2022-11-15T05:29:11.687Z,5.97
2022-11-15T05:31:43.941Z,7.10
2022-11-15T05:34:13.524Z,6.67
2022-11-15T05:36:45.852Z,6.60
2022-11-15T05:39:15.984Z,6.73
2022-11-15T05:42:14.831Z,7.10
2022-11-15T05:44:49.444Z,7.07
2022-11-15T05:47:23.022Z,6.20
2022-11-15T05:49:52.709Z,6.03
2022-11-15T05:52:26.653Z,5.90
2022-11-15T05:54:54.804Z,6.37
2022-11-15T05:57:21.973Z,5.87
2022-11-15T05:59:49.132Z,6.80
2022-11-15T06:02:18.383Z,5.93
2022-11-15T06:04:47.851Z,5.90
2022-11-15T06:07:17.498Z,5.90
2022-11-15T06:09:44.690Z,5.80
2022-11-15T06:12:16.534Z,6.90
2022-11-15T06:14:45.945Z,5.77
2022-11-15T06:17:15.288Z,6.10
2022-11-15T06:19:42.396Z,6.50
2022-11-15T06:22:11.754Z,5.67
2022-11-15T06:24:38.807Z,6.17
2022-11-15T06:27:08.138Z,6.20
2022-11-15T06:29:37.790Z,6.13
2022-11-15T06:32:07.988Z,6.50
2022-11-15T06:34:36.771Z,6.73
2022-11-15T06:37:03.999Z,6.00
2022-11-15T06:39:31.082Z,6.50
2022-11-15T06:42:00.287Z,6.60
2022-11-15T06:44:27.409Z,6.27
2022-11-15T06:46:57.079Z,6.37
2022-11-15T06:49:29.226Z,6.10
2022-11-15T06:51:56.341Z,6.63
2022-11-15T06:54:23.604Z,6.13
2022-11-15T06:56:50.683Z,6.47
2022-11-15T06:59:17.792Z,6.10
2022-11-15T07:01:47.326Z,6.23
2022-11-15T07:04:17.545Z,6.43
2022-11-15T07:06:48.337Z,5.80
2022-11-15T07:09:15.972Z,6.20
2022-11-15T07:11:45.225Z,6.00
2022-11-15T07:14:14.646Z,6.20
2022-11-15T07:16:41.737Z,5.73
2022-11-15T07:19:11.427Z,5.77
2022-11-15T07:21:40.726Z,5.60
2022-11-15T07:24:08.075Z,6.03
2022-11-15T07:26:37.344Z,6.23
2022-11-15T07:29:06.942Z,5.97
2022-11-15T07:31:36.487Z,6.20
2022-11-15T07:34:05.980Z,5.57
2022-11-15T07:36:33.157Z,5.57
2022-11-15T07:39:02.791Z,4.97
2022-11-15T07:41:30.843Z,4.50
2022-11-15T07:44:01.329Z,4.43
2022-11-15T07:46:28.512Z,4.70
2022-11-15T07:49:00.504Z,4.47
2022-11-15T07:51:30.141Z,4.13
2022-11-15T07:53:59.634Z,4.30
2022-11-15T07:56:26.706Z,4.00
2022-11-15T07:59:00.187Z,4.63
2022-11-15T08:01:29.523Z,4.60
2022-11-15T08:03:59.062Z,5.40
2022-11-15T08:06:28.451Z,4.50
2022-11-15T08:08:55.519Z,4.00
2022-11-15T08:11:27.755Z,5.20
2022-11-15T08:13:54.920Z,4.53
2022-11-15T08:16:26.508Z,5.63
2022-11-15T08:18:53.569Z,4.60
2022-11-15T08:21:23.909Z,3.50
2022-11-15T08:23:53.681Z,3.50
2022-11-15T08:26:23.196Z,3.83
2022-11-15T08:28:55.071Z,3.60
2022-11-15T08:31:22.293Z,2.87
2022-11-15T08:33:49.430Z,2.37
2022-11-15T08:36:21.376Z,2.10
2022-11-15T08:38:50.915Z,1.97
2022-11-15T08:41:37.932Z,1.50
2022-11-15T08:44:05.317Z,1.70
2022-11-15T08:46:32.554Z,1.70
2022-11-15T08:48:59.789Z,1.50
2022-11-15T08:51:26.972Z,1.90
2022-11-15T08:53:56.222Z,1.80
2022-11-15T08:56:23.380Z,1.40
2022-11-15T08:58:50.500Z,1.50
2022-11-15T09:01:19.733Z,1.80
2022-11-15T09:03:49.432Z,2.03
2022-11-15T09:06:20.138Z,2.20
2022-11-15T09:08:48.455Z,1.87
2022-11-15T09:11:17.574Z,2.33
2022-11-15T09:13:45.199Z,2.13
2022-11-15T09:16:16.257Z,1.97
2022-11-15T09:18:43.770Z,1.80
2022-11-15T09:21:13.507Z,2.00
2022-11-15T09:23:40.769Z,2.17
2022-11-15T09:26:10.202Z,1.93
2022-11-15T09:28:37.712Z,1.70
2022-11-15T09:31:06.562Z,2.07
2022-11-15T09:33:36.092Z,2.67
2022-11-15T09:36:10.309Z,1.93
2022-11-15T09:38:37.887Z,1.80
2022-11-15T09:41:13.420Z,2.10
2022-11-15T09:43:59.316Z,1.50
2022-11-15T09:46:45.192Z,1.30
2022-11-15T09:49:16.211Z,1.43
2022-11-15T09:51:52.584Z,1.50
2022-11-15T09:57:20.353Z,1.47
2022-11-15T10:00:44.076Z,1.80
2022-11-15T10:03:16.590Z,1.60
2022-11-15T10:05:52.953Z,2.10
2022-11-15T10:08:58.248Z,2.30
2022-11-15T10:11:37.215Z,1.77
2022-11-15T10:14:22.572Z,1.30
2022-11-15T10:17:14.940Z,1.50
2022-11-15T10:19:51.234Z,1.50
2022-11-15T10:22:27.839Z,1.00
2022-11-15T10:25:20.655Z,1.23
2022-11-15T10:28:13.159Z,1.13
2022-11-15T10:30:52.896Z,1.20
2022-11-15T10:33:32.530Z,1.30
2022-11-15T10:36:19.795Z,1.27
2022-11-15T10:38:51.714Z,1.20
2022-11-15T10:41:21.649Z,1.07
2022-11-15T10:44:15.818Z,1.27
2022-11-15T10:46:48.082Z,1.50
2022-11-15T10:49:15.397Z,1.53
2022-11-15T10:52:13.888Z,1.30
2022-11-15T10:54:47.931Z,1.00
2022-11-15T10:57:21.157Z,1.20
2022-11-15T10:59:54.471Z,1.10
2022-11-15T11:02:33.562Z,1.43
2022-11-15T11:05:01.930Z,1.40
2022-11-15T11:07:33.584Z,1.33
2022-11-15T11:10:49.300Z,1.43
2022-11-15T11:13:15.858Z,1.30
2022-11-15T11:15:50.010Z,1.17
2022-11-15T11:18:33.741Z,2.00
2022-11-15T11:21:05.717Z,1.13
2022-11-15T11:23:44.356Z,1.50
2022-11-15T11:26:45.645Z,1.67
2022-11-15T11:29:29.363Z,1.87
2022-11-15T11:32:08.620Z,1.20
2022-11-15T11:34:41.508Z,1.20
2022-11-15T11:37:27.257Z,1.20
2022-11-15T11:40:11.004Z,1.30
2022-11-15T11:43:02.501Z,1.40
2022-11-15T11:45:35.541Z,1.50
2022-11-15T11:48:15.841Z,1.20
2022-11-15T11:50:49.019Z,1.50
2022-11-15T11:53:25.245Z,1.10
2022-11-15T11:55:59.904Z,1.20
2022-11-15T11:58:39.956Z,1.33
2022-11-15T12:01:25.993Z,2.30
2022-11-15T12:04:11.227Z,3.00
2022-11-15T12:06:57.751Z,2.63
2022-11-15T12:09:48.194Z,2.03
2022-11-15T12:12:34.937Z,1.50
2022-11-15T12:15:11.288Z,1.63
2022-11-15T12:17:41.280Z,2.17
2022-11-15T12:20:30.434Z,2.10
2022-11-15T12:23:18.836Z,1.87
2022-11-15T12:26:09.773Z,0.90
2022-11-15T12:29:06.912Z,1.60
2022-11-15T12:31:37.112Z,2.30
2022-11-15T12:34:16.714Z,2.37
2022-11-15T12:36:51.107Z,1.60
2022-11-15T12:39:40.915Z,1.20
2022-11-15T12:42:07.935Z,1.00
2022-11-15T12:44:35.019Z,1.20
2022-11-15T12:47:10.022Z,1.00
2022-11-15T12:49:37.128Z,1.10
2022-11-15T12:52:10.997Z,1.27
2022-11-15T12:54:40.847Z,1.70
2022-11-15T12:57:10.130Z,1.63
2022-11-15T13:00:00.355Z,1.33
2022-11-15T13:02:49.487Z,1.20
2022-11-15T13:05:19.487Z,1.00
2022-11-15T13:07:46.608Z,1.20
2022-11-15T13:10:13.768Z,1.60
2022-11-15T13:12:48.567Z,1.20
2022-11-15T13:15:15.628Z,1.40
2022-11-15T13:17:55.741Z,1.00
2022-11-15T13:20:26.864Z,1.43
2022-11-15T13:23:08.663Z,1.30
2022-11-15T13:25:56.845Z,0.97
2022-11-15T13:28:46.503Z,1.30
2022-11-15T13:31:41.307Z,1.60
2022-11-15T13:34:50.033Z,1.40
2022-11-15T13:37:33.524Z,0.97
2022-11-15T13:40:22.631Z,1.20
2022-11-15T13:42:49.908Z,1.17
2022-11-15T13:45:21.002Z,1.40
2022-11-15T13:47:56.733Z,1.20
2022-11-15T13:50:33.425Z,1.27
2022-11-15T13:53:03.794Z,1.23
2022-11-15T13:55:33.990Z,1.10
2022-11-15T13:58:07.249Z,1.20
2022-11-15T14:00:44.275Z,1.20
2022-11-15T14:03:23.155Z,0.73
2022-11-15T14:06:12.861Z,1.17
2022-11-15T14:08:41.659Z,1.30
2022-11-15T14:11:15.984Z,1.10
2022-11-15T14:13:45.669Z,1.07
2022-11-15T14:16:37.737Z,1.00
2022-11-15T14:19:34.693Z,1.10
2022-11-15T14:22:23.674Z,1.10
2022-11-15T14:25:06.567Z,1.20
2022-11-15T14:27:34.191Z,1.10
2022-11-15T14:30:06.632Z,1.10
2022-11-15T14:32:48.894Z,1.00
2022-11-15T14:35:21.562Z,0.90
2022-11-15T14:37:51.268Z,1.37
2022-11-15T14:40:25.413Z,1.10
2022-11-15T14:42:52.488Z,0.90
2022-11-15T14:45:23.299Z,1.43
2022-11-15T14:47:50.422Z,1.43
2022-11-15T14:50:20.579Z,1.10
2022-11-15T14:52:49.010Z,0.90
2022-11-15T14:55:25.392Z,1.00
2022-11-15T14:57:53.613Z,1.40
2022-11-15T15:00:23.432Z,1.00
2022-11-15T15:02:55.500Z,1.20
2022-11-15T15:05:26.843Z,0.93
2022-11-15T15:07:54.260Z,0.97
2022-11-15T15:13:21.367Z,1.10
2022-11-15T15:15:52.606Z,1.47
2022-11-15T15:18:20.811Z,1.13
2022-11-15T15:20:57.949Z,1.20
2022-11-15T15:23:30.204Z,1.00
2022-11-15T15:25:59.709Z,1.23
2022-11-15T15:28:34.294Z,1.30
2022-11-15T15:31:02.795Z,1.50
2022-11-15T15:33:29.955Z,1.10
2022-11-15T15:35:57.182Z,1.30
2022-11-15T15:38:26.471Z,1.30
2022-11-15T15:40:53.573Z,1.40
2022-11-15T15:43:25.255Z,1.50
2022-11-15T15:45:56.817Z,1.30
2022-11-15T15:48:26.674Z,1.30
2022-11-15T15:50:55.806Z,1.53
2022-11-15T15:53:22.917Z,1.50
2022-11-15T15:55:59.254Z,1.33
2022-11-15T15:58:28.644Z,1.43
2022-11-15T16:00:55.834Z,1.73
2022-11-15T16:03:28.476Z,1.50
2022-11-15T16:05:55.665Z,1.50
2022-11-15T16:08:27.669Z,1.30
2022-11-15T16:10:54.805Z,1.30
2022-11-15T16:13:21.971Z,1.30
2022-11-15T16:15:56.581Z,1.40
2022-11-15T16:18:23.678Z,1.50
2022-11-15T16:20:53.047Z,2.00
2022-11-15T16:23:24.731Z,1.70
2022-11-15T16:25:58.491Z,1.80
2022-11-15T16:28:28.568Z,1.60
2022-11-15T16:31:08.975Z,1.40
2022-11-15T16:33:37.381Z,1.50
2022-11-15T16:36:23.318Z,1.63
2022-11-15T16:38:58.275Z,1.73
2022-11-15T16:41:32.283Z,1.77
2022-11-15T16:44:04.014Z,1.60
2022-11-15T16:46:38.760Z,1.73
2022-11-15T16:49:14.977Z,2.13
2022-11-15T16:51:42.573Z,1.70
2022-11-15T16:54:16.850Z,1.70
2022-11-15T16:56:46.198Z,2.10
2022-11-15T16:59:17.876Z,1.90
2022-11-15T17:01:50.575Z,1.87
2022-11-15T17:04:19.468Z,1.60
2022-11-15T17:06:49.305Z,2.00
2022-11-15T17:09:24.482Z,1.97
2022-11-15T17:11:52.120Z,1.83
2022-11-15T17:14:19.327Z,1.70
2022-11-15T17:16:51.040Z,1.80
2022-11-15T17:19:23.024Z,1.80
2022-11-15T17:21:50.498Z,1.90
2022-11-15T17:24:26.503Z,2.07
2022-11-15T17:26:53.638Z,2.20
2022-11-15T17:29:23.148Z,2.10
2022-11-15T17:31:50.246Z,1.90
2022-11-15T17:34:19.886Z,2.23
2022-11-15T17:36:49.618Z,2.30
2022-11-15T17:39:18.632Z,2.10
2022-11-15T17:41:45.697Z,2.90
2022-11-15T17:44:12.851Z,2.20
2022-11-15T17:46:40.779Z,2.50
2022-11-15T17:49:08.124Z,2.57
2022-11-15T17:51:35.313Z,1.90
2022-11-15T17:54:04.702Z,2.30
2022-11-15T17:56:31.852Z,2.37
2022-11-15T17:59:00.547Z,2.30
2022-11-15T18:01:32.843Z,2.70
2022-11-15T18:04:02.189Z,2.37
2022-11-15T18:06:31.974Z,2.30
2022-11-15T18:08:59.540Z,2.40
2022-11-15T18:11:33.089Z,2.27
2022-11-15T18:14:04.611Z,2.43
2022-11-15T18:16:36.970Z,2.07
2022-11-15T18:19:22.919Z,2.20
2022-11-15T18:22:04.414Z,2.33
2022-11-15T18:24:35.521Z,2.37
2022-11-15T18:27:05.475Z,2.73
2022-11-15T18:29:38.224Z,2.30
2022-11-15T18:32:12.469Z,2.33
2022-11-15T18:34:39.633Z,2.30
2022-11-15T18:37:10.003Z,2.30
2022-11-15T18:39:37.851Z,2.10
2022-11-15T18:42:05.100Z,2.40
2022-11-15T18:44:34.504Z,2.30
2022-11-15T18:47:01.635Z,2.20
2022-11-15T18:49:28.712Z,2.40
2022-11-15T18:51:56.995Z,2.40
2022-11-15T18:54:28.270Z,2.30
2022-11-15T18:56:57.972Z,2.60
2022-11-15T18:59:27.605Z,2.40
2022-11-15T19:01:56.964Z,2.57
2022-11-15T19:04:24.077Z,2.43
2022-11-15T19:06:53.558Z,2.30
2022-11-15T19:09:27.370Z,2.77
2022-11-15T19:11:54.427Z,2.77
2022-11-15T19:14:24.326Z,2.83
2022-11-15T19:16:55.202Z,2.80
2022-11-15T19:19:28.274Z,2.37
2022-11-15T19:21:58.531Z,2.70
2022-11-15T19:24:27.263Z,2.77
2022-11-15T19:26:54.930Z,2.80
2022-11-15T19:29:26.619Z,2.67
2022-11-15T19:31:56.020Z,2.60
2022-11-15T19:34:23.067Z,2.57
2022-11-15T19:36:50.134Z,2.87
2022-11-15T19:39:19.526Z,2.60
2022-11-15T19:41:46.873Z,2.40
2022-11-15T19:44:14.908Z,2.47
2022-11-15T19:46:46.606Z,2.53
2022-11-15T19:49:18.916Z,3.33
2022-11-15T19:51:48.379Z,2.60
2022-11-15T19:54:20.590Z,2.97
2022-11-15T19:56:51.894Z,3.07
2022-11-15T19:59:19.132Z,3.30
2022-11-15T20:01:46.329Z,3.13
2022-11-15T20:04:19.051Z,3.20
2022-11-15T20:06:46.551Z,3.80
2022-11-15T20:09:16.641Z,4.10
2022-11-15T20:11:44.050Z,3.70
2022-11-15T20:14:12.955Z,3.50
2022-11-15T20:16:42.553Z,3.20
2022-11-15T20:19:09.820Z,2.87
2022-11-15T20:21:40.089Z,2.90
2022-11-15T20:24:10.171Z,2.90
2022-11-15T20:26:39.848Z,2.90
2022-11-15T20:29:10.143Z,3.10
2022-11-15T20:31:37.382Z,3.10
2022-11-15T20:34:04.824Z,2.80
2022-11-15T20:36:32.022Z,2.97
2022-11-15T20:38:59.854Z,3.20
2022-11-15T20:41:29.979Z,3.37
2022-11-15T20:43:57.073Z,2.90
2022-11-15T20:46:24.121Z,3.00
2022-11-15T20:48:53.742Z,2.90
2022-11-15T20:51:23.247Z,2.80
2022-11-15T20:53:50.773Z,2.70
2022-11-15T20:56:20.063Z,2.83
2022-11-15T20:58:50.100Z,2.67
2022-11-15T21:01:23.240Z,2.87
2022-11-15T21:03:56.621Z,3.20
2022-11-15T21:06:25.183Z,3.03
2022-11-15T21:09:13.902Z,3.50
2022-11-15T21:12:04.151Z,3.10
2022-11-15T21:14:36.255Z,3.20
2022-11-15T21:17:23.237Z,3.03
2022-11-15T21:19:53.889Z,3.37
2022-11-15T21:22:24.035Z,3.07
2022-11-15T21:24:51.284Z,3.47
2022-11-15T21:27:21.348Z,3.10
2022-11-15T21:29:50.742Z,3.90
2022-11-15T21:32:17.985Z,4.10
2022-11-15T21:34:45.117Z,3.70
2022-11-15T21:37:12.836Z,3.60
2022-11-15T21:39:40.044Z,3.53
2022-11-15T21:42:07.529Z,3.70
2022-11-15T21:44:34.697Z,3.30
2022-11-15T21:47:21.614Z,3.30
2022-11-15T21:50:13.138Z,3.30
2022-11-15T21:53:02.307Z,3.50
2022-11-15T21:55:49.141Z,3.17
2022-11-15T21:58:19.211Z,3.07
2022-11-15T22:01:05.486Z,3.47
2022-11-15T22:03:35.460Z,3.20
2022-11-15T22:06:02.678Z,3.37
2022-11-15T22:08:31.553Z,3.73
2022-11-15T22:10:59.076Z,3.30
2022-11-15T22:13:37.737Z,3.77
2022-11-15T22:16:08.055Z,3.63
2022-11-15T22:18:38.406Z,3.37
2022-11-15T22:21:17.450Z,3.07
2022-11-15T22:23:46.713Z,3.23
2022-11-15T22:26:23.276Z,3.40
2022-11-15T22:28:51.629Z,3.47
2022-11-15T22:31:19.102Z,3.40
2022-11-15T22:33:48.633Z,4.27
2022-11-15T22:36:18.452Z,3.90
2022-11-15T22:38:45.581Z,3.60
2022-11-15T22:41:12.738Z,3.43
2022-11-15T22:43:39.827Z,3.83
2022-11-15T22:46:09.227Z,3.40
2022-11-15T22:48:39.994Z,3.57
2022-11-15T22:51:10.420Z,3.17
2022-11-15T22:53:37.661Z,3.23
2022-11-15T22:56:07.207Z,3.70
2022-11-15T22:58:34.703Z,3.10
2022-11-15T23:01:06.572Z,3.23
2022-11-15T23:03:35.871Z,2.90
2022-11-15T23:06:07.454Z,3.30
2022-11-15T23:08:35.060Z,3.00
2022-11-15T23:11:23.894Z,3.30
2022-11-15T23:13:53.342Z,2.90
2022-11-15T23:16:25.852Z,2.60
2022-11-15T23:18:57.554Z,3.10
2022-11-15T23:21:58.055Z,3.17
2022-11-15T23:24:28.167Z,3.27
2022-11-15T23:27:02.817Z,3.20
2022-11-15T23:29:30.899Z,2.90
2022-11-15T23:32:18.666Z,3.00
2022-11-15T23:34:51.225Z,2.80
2022-11-15T23:37:20.639Z,2.57
2022-11-15T23:39:49.839Z,3.20
2022-11-15T23:42:22.304Z,3.33
2022-11-15T23:44:50.655Z,2.93
2022-11-15T23:47:20.075Z,2.90
2022-11-15T23:49:49.435Z,2.77
2022-11-15T23:52:19.343Z,2.83
2022-11-15T23:54:48.677Z,3.30
2022-11-15T23:57:20.324Z,3.00
2022-11-15T23:59:47.811Z,3.20
